createdAt,value
2023-05-21T00:00:10.764Z,16.91
2023-05-21T00:01:16.274Z,16.87
2023-05-21T00:02:19.878Z,16.83
2023-05-21T00:03:22.291Z,16.81
2023-05-21T00:04:25.536Z,16.82
2023-05-21T00:05:27.739Z,16.80
2023-05-21T00:06:29.984Z,16.81
2023-05-21T00:07:33.224Z,16.80
2023-05-21T00:08:35.346Z,16.77
2023-05-21T00:09:40.607Z,16.76
2023-05-21T00:10:42.778Z,16.79
2023-05-21T00:11:44.903Z,16.77
2023-05-21T00:12:47.068Z,16.79
2023-05-21T00:13:49.192Z,16.80
2023-05-21T00:14:51.620Z,16.83
2023-05-21T00:15:53.780Z,16.81
2023-05-21T00:16:56.005Z,16.80
2023-05-21T00:17:58.164Z,16.79
2023-05-21T00:19:00.456Z,16.79
2023-05-21T00:20:06.285Z,16.82
2023-05-21T00:21:08.427Z,16.81
2023-05-21T00:22:10.617Z,16.75
2023-05-21T00:23:12.930Z,16.77
2023-05-21T00:24:15.227Z,16.78
2023-05-21T00:25:17.490Z,16.82
2023-05-21T00:26:21.668Z,16.85
2023-05-21T00:27:23.798Z,16.89
2023-05-21T00:28:25.953Z,16.89
2023-05-21T00:29:30.161Z,16.88
2023-05-21T00:30:32.283Z,16.89
2023-05-21T00:31:34.419Z,16.83
2023-05-21T00:32:37.117Z,16.80
2023-05-21T00:33:39.308Z,16.79
2023-05-21T00:34:41.528Z,16.80
2023-05-21T00:35:43.781Z,16.81
2023-05-21T00:36:46.596Z,16.81
2023-05-21T00:37:48.699Z,16.81
2023-05-21T00:38:51.636Z,16.79
2023-05-21T00:39:54.014Z,16.79
2023-05-21T00:40:56.523Z,16.80
2023-05-21T00:41:58.716Z,16.81
2023-05-21T00:43:00.863Z,16.83
2023-05-21T00:44:03.247Z,16.91
2023-05-21T00:45:09.131Z,16.94
2023-05-21T00:46:16.594Z,16.95
2023-05-21T00:47:18.883Z,16.96
2023-05-21T00:48:21.008Z,17.00
2023-05-21T00:49:24.584Z,16.98
2023-05-21T00:50:26.812Z,16.95
2023-05-21T00:51:30.961Z,16.92
2023-05-21T00:52:33.352Z,16.90
2023-05-21T00:53:36.185Z,16.90
2023-05-21T00:54:38.606Z,16.87
2023-05-21T00:55:41.012Z,16.85
2023-05-21T00:56:43.183Z,16.79
2023-05-21T00:57:46.096Z,16.78
2023-05-21T00:58:48.530Z,16.77
2023-05-21T00:59:51.834Z,16.78
2023-05-21T01:00:57.077Z,16.75
2023-05-21T01:02:04.310Z,16.73
2023-05-21T01:03:06.805Z,16.67
2023-05-21T01:04:09.093Z,16.60
2023-05-21T01:05:11.317Z,16.58
2023-05-21T01:06:14.208Z,16.62
2023-05-21T01:07:16.341Z,16.62
2023-05-21T01:08:20.817Z,16.60
2023-05-21T01:09:23.041Z,16.57
2023-05-21T01:10:25.808Z,16.57
2023-05-21T01:11:39.846Z,16.56
2023-05-21T01:12:43.885Z,16.51
2023-05-21T01:13:46.647Z,16.48
2023-05-21T01:14:49.639Z,16.50
2023-05-21T01:15:53.703Z,16.51
2023-05-21T01:16:55.888Z,16.48
2023-05-21T01:18:00.360Z,16.42
2023-05-21T01:19:03.561Z,16.39
2023-05-21T01:20:12.709Z,16.35
2023-05-21T01:21:17.483Z,16.30
2023-05-21T01:22:21.427Z,16.31
2023-05-21T01:23:23.820Z,16.32
2023-05-21T01:24:26.039Z,16.38
2023-05-21T01:25:28.236Z,16.36
2023-05-21T01:26:30.505Z,16.37
2023-05-21T01:27:32.731Z,16.41
2023-05-21T01:28:34.967Z,16.48
2023-05-21T01:29:37.100Z,16.48
2023-05-21T01:30:41.434Z,16.44
2023-05-21T01:32:05.856Z,16.37
2023-05-21T01:33:17.380Z,16.30
2023-05-21T01:34:36.887Z,16.27
2023-05-21T01:35:43.151Z,16.22
2023-05-21T01:36:56.016Z,16.16
2023-05-21T01:38:05.785Z,16.14
2023-05-21T01:39:20.031Z,16.09
2023-05-21T01:40:42.230Z,16.04
2023-05-21T01:41:46.163Z,16.00
2023-05-21T01:42:48.484Z,15.99
2023-05-21T01:43:51.305Z,15.97
2023-05-21T01:44:55.998Z,15.93
2023-05-21T01:45:59.558Z,15.88
2023-05-21T01:47:02.668Z,15.87
2023-05-21T01:48:06.654Z,15.84
2023-05-21T01:49:09.343Z,15.86
2023-05-21T01:50:11.700Z,15.83
2023-05-21T01:51:14.160Z,15.82
2023-05-21T01:52:16.518Z,15.90
2023-05-21T01:53:18.698Z,15.91
2023-05-21T01:54:22.036Z,15.89
2023-05-21T01:55:28.196Z,15.90
2023-05-21T01:56:33.767Z,15.84
2023-05-21T01:57:36.048Z,15.85
2023-05-21T01:58:38.230Z,15.84
2023-05-21T01:59:40.426Z,15.86
2023-05-21T02:00:42.787Z,15.83
2023-05-21T02:01:44.977Z,15.88
2023-05-21T02:02:47.259Z,15.89
2023-05-21T02:03:49.538Z,15.88
2023-05-21T02:04:51.801Z,15.89
2023-05-21T02:05:55.740Z,15.85
2023-05-21T02:06:58.089Z,15.82
2023-05-21T02:08:01.663Z,15.78
2023-05-21T02:09:04.794Z,15.72
2023-05-21T02:10:07.814Z,15.71
2023-05-21T02:11:10.078Z,15.70
2023-05-21T02:12:12.233Z,15.73
2023-05-21T02:13:14.552Z,15.69
2023-05-21T02:14:16.846Z,15.69
2023-05-21T02:15:19.278Z,15.64
2023-05-21T02:16:22.509Z,15.60
2023-05-21T02:17:24.827Z,15.58
2023-05-21T02:18:29.298Z,15.56
2023-05-21T02:19:31.465Z,15.48
2023-05-21T02:20:33.600Z,15.49
2023-05-21T02:21:36.072Z,15.45
2023-05-21T02:22:43.393Z,15.38
2023-05-21T02:23:45.782Z,15.34
2023-05-21T02:24:47.938Z,15.32
2023-05-21T02:25:50.164Z,15.28
2023-05-21T02:26:52.512Z,15.30
2023-05-21T02:27:56.816Z,15.32
2023-05-21T02:28:59.079Z,15.27
2023-05-21T02:30:01.584Z,15.25
2023-05-21T02:31:04.048Z,15.24
2023-05-21T02:32:06.496Z,15.27
2023-05-21T02:33:09.205Z,15.28
2023-05-21T02:34:11.633Z,15.27
2023-05-21T02:35:13.852Z,15.28
2023-05-21T02:36:19.047Z,15.25
2023-05-21T02:37:22.097Z,15.21
2023-05-21T02:38:25.961Z,15.23
2023-05-21T02:39:28.218Z,15.22
2023-05-21T02:40:30.432Z,15.24
2023-05-21T02:41:32.554Z,15.23
2023-05-21T02:42:36.576Z,15.19
2023-05-21T02:43:38.819Z,15.16
2023-05-21T02:44:40.940Z,15.14
2023-05-21T02:45:43.073Z,15.13
2023-05-21T02:46:45.309Z,15.14
2023-05-21T02:47:47.484Z,15.14
2023-05-21T02:48:49.630Z,15.16
2023-05-21T02:49:52.613Z,15.13
2023-05-21T02:50:54.850Z,15.11
2023-05-21T02:51:56.978Z,15.06
2023-05-21T02:52:59.877Z,15.05
2023-05-21T02:54:02.017Z,15.01
2023-05-21T02:55:04.477Z,15.00
2023-05-21T02:56:06.741Z,14.98
2023-05-21T02:57:08.874Z,14.93
2023-05-21T02:58:13.488Z,14.98
2023-05-21T02:59:15.508Z,15.01
2023-05-21T03:00:17.798Z,15.02
2023-05-21T03:01:19.997Z,15.01
2023-05-21T03:02:22.383Z,14.97
2023-05-21T03:03:24.734Z,15.00
2023-05-21T03:04:28.402Z,15.00
2023-05-21T03:05:30.865Z,14.97
2023-05-21T03:06:34.798Z,14.98
2023-05-21T03:07:36.925Z,14.95
2023-05-21T03:08:39.407Z,15.01
2023-05-21T03:09:42.430Z,14.99
2023-05-21T03:10:44.768Z,15.01
2023-05-21T03:11:46.928Z,15.02
2023-05-21T03:12:49.299Z,15.00
2023-05-21T03:13:51.599Z,14.97
2023-05-21T03:14:53.730Z,14.97
2023-05-21T03:15:56.586Z,15.03
2023-05-21T03:16:58.771Z,14.98
2023-05-21T03:18:01.802Z,14.99
2023-05-21T03:19:04.139Z,15.00
2023-05-21T03:20:08.863Z,15.01
2023-05-21T03:21:13.335Z,14.97
2023-05-21T03:22:16.003Z,14.94
2023-05-21T03:23:18.241Z,14.93
2023-05-21T03:24:20.353Z,14.89
2023-05-21T03:25:25.275Z,14.93
2023-05-21T03:26:27.660Z,14.91
2023-05-21T03:27:29.833Z,14.88
2023-05-21T03:28:31.977Z,14.88
2023-05-21T03:29:34.721Z,14.89
2023-05-21T03:30:38.399Z,14.91
2023-05-21T03:31:40.807Z,14.92
2023-05-21T03:32:45.148Z,14.92
2023-05-21T03:33:47.350Z,14.94
2023-05-21T03:34:49.543Z,14.97
2023-05-21T03:35:51.792Z,15.03
2023-05-21T03:36:53.893Z,15.04
2023-05-21T03:37:56.112Z,15.06
2023-05-21T03:38:58.291Z,15.08
2023-05-21T03:40:00.484Z,15.12
2023-05-21T03:41:02.656Z,15.16
2023-05-21T03:42:04.951Z,15.20
2023-05-21T03:43:07.080Z,15.28
2023-05-21T03:44:09.324Z,15.33
2023-05-21T03:45:11.894Z,15.37
2023-05-21T03:46:14.064Z,15.41
2023-05-21T03:47:16.413Z,15.45
2023-05-21T03:48:18.941Z,15.49
2023-05-21T03:49:21.162Z,15.50
2023-05-21T03:50:23.397Z,15.58
2023-05-21T03:51:25.806Z,15.65
2023-05-21T03:52:27.917Z,15.69
2023-05-21T03:53:30.114Z,15.72
2023-05-21T03:54:32.255Z,15.75
2023-05-21T03:55:34.528Z,15.77
2023-05-21T03:56:36.813Z,15.88
2023-05-21T03:57:39.361Z,15.90
2023-05-21T03:58:41.558Z,15.93
2023-05-21T03:59:43.768Z,16.00
2023-05-21T04:00:46.116Z,16.03
2023-05-21T04:01:48.291Z,16.09
2023-05-21T04:02:50.520Z,16.14
2023-05-21T04:03:52.891Z,16.18
2023-05-21T04:04:56.020Z,16.25
2023-05-21T04:05:58.530Z,16.31
2023-05-21T04:07:01.030Z,16.40
2023-05-21T04:08:03.181Z,16.47
2023-05-21T04:09:05.314Z,16.56
2023-05-21T04:10:08.030Z,16.56
2023-05-21T04:11:10.159Z,16.59
2023-05-21T04:12:12.402Z,16.63
2023-05-21T04:13:14.556Z,16.67
2023-05-21T04:14:16.709Z,16.68
2023-05-21T04:15:19.463Z,16.73
2023-05-21T04:16:22.610Z,16.81
2023-05-21T04:17:26.945Z,16.82
2023-05-21T04:18:29.198Z,16.82
2023-05-21T04:19:32.466Z,16.89
2023-05-21T04:20:34.782Z,16.91
2023-05-21T04:21:37.346Z,16.92
2023-05-21T04:22:45.451Z,16.94
2023-05-21T04:23:47.616Z,16.98
2023-05-21T04:24:50.036Z,17.02
2023-05-21T04:25:52.154Z,17.05
2023-05-21T04:26:54.342Z,17.04
2023-05-21T04:27:57.005Z,17.02
2023-05-21T04:28:59.496Z,17.07
2023-05-21T04:30:01.635Z,17.03
2023-05-21T04:31:03.814Z,16.99
2023-05-21T04:32:06.493Z,16.99
2023-05-21T04:33:10.010Z,17.01
2023-05-21T04:34:12.149Z,16.97
2023-05-21T04:35:15.347Z,17.03
2023-05-21T04:36:17.550Z,17.03
2023-05-21T04:37:19.694Z,17.05
2023-05-21T04:38:21.816Z,17.08
2023-05-21T04:39:24.114Z,17.16
2023-05-21T04:40:26.872Z,17.19
2023-05-21T04:41:29.192Z,17.23
2023-05-21T04:42:33.048Z,17.24
2023-05-21T04:43:35.347Z,17.27
2023-05-21T04:44:40.435Z,17.33
2023-05-21T04:45:43.589Z,17.37
2023-05-21T04:46:46.258Z,17.43
2023-05-21T04:47:48.696Z,17.47
2023-05-21T04:48:55.022Z,17.51
2023-05-21T04:49:57.366Z,17.57
2023-05-21T04:50:59.944Z,17.61
2023-05-21T04:52:02.587Z,17.64
2023-05-21T04:53:05.059Z,17.70
2023-05-21T04:54:07.761Z,17.77
2023-05-21T04:55:10.121Z,17.82
2023-05-21T04:56:12.294Z,17.90
2023-05-21T04:57:14.404Z,17.96
2023-05-21T04:58:18.433Z,18.02
2023-05-21T04:59:21.717Z,18.07
2023-05-21T05:00:26.211Z,18.12
2023-05-21T05:01:29.456Z,18.17
2023-05-21T05:02:31.674Z,18.19
2023-05-21T05:03:33.873Z,18.21
2023-05-21T05:04:36.046Z,18.26
2023-05-21T05:05:38.490Z,18.30
2023-05-21T05:06:41.044Z,18.36
2023-05-21T05:07:43.607Z,18.43
2023-05-21T05:08:48.875Z,18.42
2023-05-21T05:09:51.033Z,18.47
2023-05-21T05:10:53.167Z,18.52
2023-05-21T05:11:55.533Z,18.57
2023-05-21T05:12:57.971Z,18.58
2023-05-21T05:14:00.103Z,18.66
2023-05-21T05:15:02.291Z,18.69
2023-05-21T05:16:06.124Z,18.77
2023-05-21T05:17:10.010Z,18.82
2023-05-21T05:18:12.448Z,18.87
2023-05-21T05:19:14.760Z,18.92
2023-05-21T05:20:17.062Z,19.00
2023-05-21T05:21:19.172Z,19.05
2023-05-21T05:22:21.315Z,19.13
2023-05-21T05:23:23.459Z,19.11
2023-05-21T05:24:25.716Z,19.10
2023-05-21T05:25:27.906Z,19.24
2023-05-21T05:26:30.033Z,19.26
2023-05-21T05:27:32.282Z,19.31
2023-05-21T05:28:34.408Z,19.39
2023-05-21T05:29:36.982Z,19.45
2023-05-21T05:30:39.216Z,19.50
2023-05-21T05:31:41.380Z,19.49
2023-05-21T05:32:43.597Z,19.51
2023-05-21T05:33:46.219Z,19.53
2023-05-21T05:34:48.340Z,19.54
2023-05-21T05:35:50.593Z,19.63
2023-05-21T05:36:52.779Z,19.59
2023-05-21T05:37:54.881Z,19.62
2023-05-21T05:38:57.062Z,19.70
2023-05-21T05:39:59.301Z,19.78
2023-05-21T05:41:01.452Z,19.80
2023-05-21T05:42:04.076Z,19.87
2023-05-21T05:43:06.672Z,19.87
2023-05-21T05:44:10.805Z,19.90
2023-05-21T05:45:13.183Z,19.95
2023-05-21T05:46:16.648Z,19.93
2023-05-21T05:47:18.836Z,19.97
2023-05-21T05:48:20.953Z,20.01
2023-05-21T05:49:23.089Z,20.06
2023-05-21T05:50:25.220Z,20.05
2023-05-21T05:51:27.351Z,20.17
2023-05-21T05:52:29.484Z,20.24
2023-05-21T05:53:32.502Z,20.29
2023-05-21T05:54:34.704Z,20.35
2023-05-21T05:55:36.922Z,20.41
2023-05-21T05:56:39.368Z,20.36
2023-05-21T05:57:43.276Z,20.36
2023-05-21T05:58:47.057Z,20.38
2023-05-21T05:59:49.176Z,20.41
2023-05-21T06:00:51.438Z,20.39
2023-05-21T06:01:53.641Z,20.43
2023-05-21T06:02:55.848Z,20.46
2023-05-21T06:03:58.147Z,20.49
2023-05-21T06:05:00.395Z,20.58
2023-05-21T06:06:02.661Z,20.63
2023-05-21T06:07:05.076Z,20.56
2023-05-21T06:08:07.209Z,20.62
2023-05-21T06:09:09.329Z,20.69
2023-05-21T06:10:11.527Z,20.79
2023-05-21T06:11:17.183Z,20.76
2023-05-21T06:12:19.454Z,20.84
2023-05-21T06:13:21.610Z,20.91
2023-05-21T06:14:23.752Z,20.96
2023-05-21T06:15:25.924Z,21.04
2023-05-21T06:16:29.105Z,21.10
2023-05-21T06:17:31.913Z,21.03
2023-05-21T06:18:34.164Z,21.03
2023-05-21T06:19:36.292Z,21.01
2023-05-21T06:20:39.092Z,21.05
2023-05-21T06:21:41.255Z,21.13
2023-05-21T06:22:43.370Z,21.24
2023-05-21T06:23:45.600Z,21.32
2023-05-21T06:24:47.883Z,21.33
2023-05-21T06:25:50.100Z,21.29
2023-05-21T06:26:52.239Z,21.24
2023-05-21T06:27:54.350Z,21.26
2023-05-21T06:28:56.669Z,21.32
2023-05-21T06:29:58.841Z,21.32
2023-05-21T06:31:01.044Z,21.41
2023-05-21T06:32:03.584Z,21.43
2023-05-21T06:33:06.320Z,21.49
2023-05-21T06:34:08.560Z,21.53
2023-05-21T06:35:10.981Z,21.58
2023-05-21T06:36:13.155Z,21.63
2023-05-21T06:37:19.760Z,21.69
2023-05-21T06:38:21.906Z,21.74
2023-05-21T06:39:24.689Z,21.79
2023-05-21T06:40:26.851Z,21.80
2023-05-21T06:41:29.217Z,21.84
2023-05-21T06:42:31.350Z,21.83
2023-05-21T06:43:33.496Z,21.87
2023-05-21T06:44:35.628Z,21.94
2023-05-21T06:45:37.980Z,21.86
2023-05-21T06:46:40.480Z,21.80
2023-05-21T06:47:42.742Z,21.76
2023-05-21T06:48:46.031Z,21.74
2023-05-21T06:49:48.149Z,21.81
2023-05-21T06:50:50.281Z,21.92
2023-05-21T06:51:52.435Z,21.93
2023-05-21T06:52:54.563Z,21.95
2023-05-21T06:53:56.712Z,22.06
2023-05-21T06:54:58.876Z,22.05
2023-05-21T06:56:01.026Z,22.09
2023-05-21T06:57:03.250Z,22.22
2023-05-21T06:58:05.419Z,22.24
2023-05-21T06:59:07.614Z,22.28
2023-05-21T07:00:10.572Z,22.18
2023-05-21T07:01:12.826Z,22.05
2023-05-21T07:02:15.040Z,22.07
2023-05-21T07:03:17.565Z,22.06
2023-05-21T07:04:19.974Z,22.05
2023-05-21T07:05:22.643Z,22.07
2023-05-21T07:06:24.856Z,22.13
2023-05-21T07:07:27.456Z,22.19
2023-05-21T07:08:29.644Z,22.19
2023-05-21T07:09:31.882Z,22.15
2023-05-21T07:10:34.112Z,22.20
2023-05-21T07:11:36.317Z,22.28
2023-05-21T07:12:38.544Z,22.39
2023-05-21T07:13:40.686Z,22.41
2023-05-21T07:14:42.853Z,22.42
2023-05-21T07:15:45.095Z,22.44
2023-05-21T07:16:47.470Z,22.54
2023-05-21T07:17:49.644Z,22.57
2023-05-21T07:18:51.848Z,22.58
2023-05-21T07:19:54.020Z,22.67
2023-05-21T07:20:57.154Z,22.76
2023-05-21T07:21:59.323Z,22.82
2023-05-21T07:23:01.473Z,22.93
2023-05-21T07:24:03.784Z,23.04
2023-05-21T07:25:06.745Z,23.03
2023-05-21T07:26:10.239Z,23.08
2023-05-21T07:27:24.655Z,23.16
2023-05-21T07:28:27.644Z,23.19
2023-05-21T07:29:29.933Z,23.14
2023-05-21T07:30:32.046Z,23.19
2023-05-21T07:31:34.347Z,23.19
2023-05-21T07:32:36.670Z,23.11
2023-05-21T07:33:38.848Z,23.12
2023-05-21T07:34:40.990Z,23.17
2023-05-21T07:35:43.160Z,23.27
2023-05-21T07:36:45.454Z,23.35
2023-05-21T07:37:48.272Z,23.42
2023-05-21T07:38:50.541Z,23.31
2023-05-21T07:39:52.751Z,23.33
2023-05-21T07:40:54.977Z,23.36
2023-05-21T07:41:57.126Z,23.43
2023-05-21T07:42:59.288Z,23.34
2023-05-21T07:44:01.786Z,23.41
2023-05-21T07:45:04.232Z,23.50
2023-05-21T07:46:06.487Z,23.55
2023-05-21T07:47:08.650Z,23.54
2023-05-21T07:48:11.812Z,23.61
2023-05-21T07:49:16.853Z,23.68
2023-05-21T07:50:19.339Z,23.64
2023-05-21T07:51:21.884Z,23.75
2023-05-21T07:52:24.074Z,23.78
2023-05-21T07:53:26.227Z,23.81
2023-05-21T07:54:28.698Z,23.73
2023-05-21T07:55:30.915Z,23.75
2023-05-21T07:56:33.048Z,23.80
2023-05-21T07:57:35.547Z,23.85
2023-05-21T07:58:37.902Z,23.78
2023-05-21T07:59:40.042Z,23.81
2023-05-21T08:00:44.737Z,23.84
2023-05-21T08:01:46.987Z,23.83
2023-05-21T08:02:49.379Z,23.85
2023-05-21T08:03:52.840Z,23.91
2023-05-21T08:04:55.281Z,24.01
2023-05-21T08:05:57.551Z,24.10
2023-05-21T08:06:59.738Z,24.20
2023-05-21T08:08:01.883Z,24.27
2023-05-21T08:09:05.080Z,24.25
2023-05-21T08:10:07.867Z,24.28
2023-05-21T08:11:10.048Z,24.22
2023-05-21T08:12:15.763Z,24.31
2023-05-21T08:13:17.981Z,24.19
2023-05-21T08:14:20.200Z,24.14
2023-05-21T08:15:22.509Z,24.27
2023-05-21T08:16:24.677Z,24.31
2023-05-21T08:17:28.549Z,24.26
2023-05-21T08:18:31.228Z,24.25
2023-05-21T08:19:33.469Z,24.32
2023-05-21T08:20:35.710Z,24.38
2023-05-21T08:21:37.853Z,24.52
2023-05-21T08:22:39.966Z,24.56
2023-05-21T08:23:42.174Z,24.58
2023-05-21T08:24:44.585Z,24.49
2023-05-21T08:25:46.746Z,24.43
2023-05-21T08:26:50.651Z,24.32
2023-05-21T08:27:52.933Z,24.21
2023-05-21T08:28:55.150Z,23.81
2023-05-21T08:29:57.264Z,24.06
2023-05-21T08:30:59.403Z,24.22
2023-05-21T08:32:02.167Z,24.38
2023-05-21T08:33:04.378Z,24.48
2023-05-21T08:34:06.616Z,24.61
2023-05-21T08:35:09.186Z,24.66
2023-05-21T08:36:11.388Z,24.69
2023-05-21T08:37:13.577Z,24.53
2023-05-21T08:38:17.062Z,24.64
2023-05-21T08:39:19.660Z,24.49
2023-05-21T08:40:21.901Z,24.58
2023-05-21T08:41:24.454Z,24.60
2023-05-21T08:42:45.823Z,24.75
2023-05-21T08:43:50.389Z,24.87
2023-05-21T08:44:55.289Z,25.00
2023-05-21T08:45:59.355Z,25.01
2023-05-21T08:47:02.589Z,24.94
2023-05-21T08:48:05.341Z,24.83
2023-05-21T08:49:12.002Z,24.96
2023-05-21T08:50:15.555Z,24.99
2023-05-21T08:51:17.772Z,25.05
2023-05-21T08:52:20.162Z,25.18
2023-05-21T08:53:28.118Z,25.30
2023-05-21T08:54:31.670Z,25.39
2023-05-21T08:55:35.078Z,25.56
2023-05-21T08:56:38.093Z,25.53
2023-05-21T08:57:43.515Z,25.61
2023-05-21T08:58:46.888Z,25.71
2023-05-21T08:59:49.092Z,25.77
2023-05-21T09:00:51.435Z,25.74
2023-05-21T09:01:55.308Z,25.68
2023-05-21T09:03:01.234Z,25.65
2023-05-21T09:04:16.142Z,25.70
2023-05-21T09:05:22.618Z,25.73
2023-05-21T09:06:27.680Z,25.87
2023-05-21T09:07:34.520Z,25.89
2023-05-21T09:08:39.085Z,25.88
2023-05-21T09:09:58.651Z,25.97
2023-05-21T09:11:01.782Z,26.05
2023-05-21T09:12:04.287Z,26.13
2023-05-21T09:13:08.041Z,26.14
2023-05-21T09:14:11.591Z,26.39
2023-05-21T09:15:13.735Z,26.67
2023-05-21T09:16:15.911Z,26.91
2023-05-21T09:17:18.268Z,27.23
2023-05-21T09:18:20.470Z,27.38
2023-05-21T09:19:23.059Z,27.64
2023-05-21T09:20:26.870Z,28.06
2023-05-21T09:21:31.352Z,28.27
2023-05-21T09:22:33.773Z,28.27
2023-05-21T09:23:36.152Z,28.44
2023-05-21T09:24:38.327Z,28.69
2023-05-21T09:25:42.015Z,28.62
2023-05-21T09:26:44.307Z,28.70
2023-05-21T09:27:46.465Z,28.87
2023-05-21T09:28:48.604Z,29.28
2023-05-21T09:29:51.064Z,29.22
2023-05-21T09:30:55.938Z,29.20
2023-05-21T09:31:59.066Z,29.38
2023-05-21T09:33:01.732Z,29.28
2023-05-21T09:34:04.024Z,29.07
2023-05-21T09:35:13.381Z,29.15
2023-05-21T09:36:20.121Z,29.26
2023-05-21T09:37:27.644Z,29.65
2023-05-21T09:38:30.359Z,29.59
2023-05-21T09:39:33.482Z,29.73
2023-05-21T09:40:35.930Z,29.81
2023-05-21T09:41:38.262Z,30.19
2023-05-21T09:42:41.224Z,30.29
2023-05-21T09:43:46.407Z,30.08
2023-05-21T09:44:48.622Z,29.79
2023-05-21T09:45:58.968Z,29.52
2023-05-21T09:47:03.332Z,29.11
2023-05-21T09:48:05.807Z,29.11
2023-05-21T09:49:08.444Z,28.69
2023-05-21T09:50:12.093Z,28.85
2023-05-21T09:51:18.444Z,28.80
2023-05-21T09:52:27.645Z,29.07
2023-05-21T09:53:29.857Z,28.93
2023-05-21T09:54:33.947Z,29.28
2023-05-21T09:55:36.476Z,29.52
2023-05-21T09:56:39.764Z,28.97
2023-05-21T09:57:47.213Z,29.08
2023-05-21T09:58:54.956Z,29.62
2023-05-21T09:59:57.155Z,29.58
2023-05-21T10:00:59.383Z,29.76
2023-05-21T10:02:02.426Z,29.88
2023-05-21T10:03:09.827Z,29.68
2023-05-21T10:04:12.549Z,29.15
2023-05-21T10:05:17.877Z,28.86
2023-05-21T10:06:21.048Z,28.69
2023-05-21T10:07:26.265Z,29.06
2023-05-21T10:08:31.463Z,29.62
2023-05-21T10:09:33.759Z,29.80
2023-05-21T10:10:36.332Z,29.97
2023-05-21T10:11:40.022Z,30.21
2023-05-21T10:12:47.464Z,30.56
2023-05-21T10:13:56.197Z,30.58
2023-05-21T10:15:04.240Z,30.71
2023-05-21T10:16:06.640Z,30.85
2023-05-21T10:17:09.032Z,30.71
2023-05-21T10:18:12.463Z,30.82
2023-05-21T10:19:15.701Z,31.23
2023-05-21T10:20:18.154Z,30.87
2023-05-21T10:21:22.844Z,30.61
2023-05-21T10:22:25.436Z,30.49
2023-05-21T10:23:28.233Z,30.59
2023-05-21T10:24:31.348Z,30.50
2023-05-21T10:25:33.736Z,30.76
2023-05-21T10:26:36.820Z,30.91
2023-05-21T10:27:39.538Z,31.25
2023-05-21T10:28:42.318Z,31.45
2023-05-21T10:29:45.759Z,31.59
2023-05-21T10:30:48.114Z,31.93
2023-05-21T10:31:52.842Z,31.79
2023-05-21T10:32:57.080Z,31.91
2023-05-21T10:34:00.682Z,31.90
2023-05-21T10:35:02.973Z,31.85
2023-05-21T10:36:05.738Z,31.89
2023-05-21T10:37:09.588Z,31.80
2023-05-21T10:38:12.118Z,30.76
2023-05-21T10:39:14.709Z,31.33
2023-05-21T10:40:18.088Z,31.58
2023-05-21T10:41:21.948Z,31.72
2023-05-21T10:42:24.074Z,31.64
2023-05-21T10:43:44.277Z,32.13
2023-05-21T10:44:56.385Z,31.99
2023-05-21T10:46:16.400Z,31.88
2023-05-21T10:47:24.665Z,31.18
2023-05-21T10:48:32.696Z,31.46
2023-05-21T10:49:55.200Z,32.08
2023-05-21T10:51:49.863Z,31.63
2023-05-21T10:53:36.922Z,31.81
2023-05-21T10:55:08.393Z,31.60
2023-05-21T10:56:16.105Z,31.58
2023-05-21T10:57:43.065Z,31.66
2023-05-21T10:58:51.130Z,31.24
2023-05-21T10:59:53.458Z,31.38
2023-05-21T11:00:55.947Z,31.69
2023-05-21T11:01:58.317Z,31.92
2023-05-21T11:03:01.810Z,31.39
2023-05-21T11:04:05.883Z,31.93
2023-05-21T11:05:08.260Z,32.31
2023-05-21T11:06:11.686Z,32.65
2023-05-21T11:07:13.853Z,32.42
2023-05-21T11:08:23.022Z,32.55
2023-05-21T11:09:26.967Z,32.55
2023-05-21T11:10:32.892Z,32.73
2023-05-21T11:11:43.918Z,32.68
2023-05-21T11:13:11.142Z,32.58
2023-05-21T11:14:35.296Z,33.11
2023-05-21T11:15:59.646Z,33.30
2023-05-21T11:17:03.888Z,33.86
2023-05-21T11:18:06.281Z,33.71
2023-05-21T11:19:17.323Z,33.16
2023-05-21T11:20:21.709Z,32.71
2023-05-21T11:21:28.430Z,31.84
2023-05-21T11:22:30.827Z,31.08
2023-05-21T11:23:51.091Z,31.10
2023-05-21T11:25:01.686Z,31.72
2023-05-21T11:26:03.852Z,32.64
2023-05-21T11:27:07.072Z,32.84
2023-05-21T11:28:09.702Z,32.52
2023-05-21T11:29:12.146Z,32.66
2023-05-21T11:30:18.913Z,32.89
2023-05-21T11:31:27.958Z,33.25
2023-05-21T11:32:31.717Z,33.54
2023-05-21T11:33:33.955Z,33.18
2023-05-21T11:34:44.051Z,33.39
2023-05-21T11:35:46.230Z,33.41
2023-05-21T11:36:49.134Z,33.31
2023-05-21T11:37:54.025Z,33.48
2023-05-21T11:39:09.624Z,33.35
2023-05-21T11:40:30.570Z,31.88
2023-05-21T11:42:01.557Z,30.19
2023-05-21T11:43:05.399Z,31.36
2023-05-21T11:44:09.053Z,31.57
2023-05-21T11:45:11.555Z,32.16
2023-05-21T11:46:14.367Z,32.70
2023-05-21T11:47:18.585Z,32.96
2023-05-21T11:48:27.303Z,32.53
2023-05-21T11:49:31.152Z,32.66
2023-05-21T11:50:34.202Z,33.08
2023-05-21T11:51:36.809Z,33.25
2023-05-21T11:52:39.108Z,33.45
2023-05-21T11:53:44.337Z,33.31
2023-05-21T11:54:50.712Z,33.20
2023-05-21T11:55:57.700Z,33.30
2023-05-21T11:57:03.604Z,33.33
2023-05-21T11:58:06.007Z,33.54
2023-05-21T11:59:16.022Z,33.47
2023-05-21T12:00:19.339Z,34.17
2023-05-21T12:01:24.881Z,34.29
2023-05-21T12:02:31.414Z,34.44
2023-05-21T12:03:35.341Z,34.57
2023-05-21T12:04:37.660Z,34.54
2023-05-21T12:05:47.311Z,34.18
2023-05-21T12:06:50.775Z,34.16
2023-05-21T12:07:55.605Z,34.46
2023-05-21T12:08:58.487Z,34.35
2023-05-21T12:10:01.082Z,34.37
2023-05-21T12:11:03.253Z,34.58
2023-05-21T12:12:06.500Z,33.97
2023-05-21T12:13:08.742Z,32.65
2023-05-21T12:14:11.396Z,32.22
2023-05-21T12:15:13.904Z,31.76
2023-05-21T12:16:16.100Z,32.06
2023-05-21T12:17:19.598Z,33.05
2023-05-21T12:18:21.922Z,33.01
2023-05-21T12:19:24.267Z,32.17
2023-05-21T12:20:28.224Z,32.49
2023-05-21T12:21:31.572Z,33.45
2023-05-21T12:22:33.820Z,33.52
2023-05-21T12:23:36.470Z,33.71
2023-05-21T12:24:38.969Z,32.88
2023-05-21T12:25:41.205Z,32.87
2023-05-21T12:26:46.023Z,33.23
2023-05-21T12:27:50.332Z,33.27
2023-05-21T12:28:52.780Z,33.22
2023-05-21T12:29:55.078Z,32.41
2023-05-21T12:30:57.198Z,33.26
2023-05-21T12:32:01.082Z,33.52
2023-05-21T12:33:04.505Z,33.69
2023-05-21T12:34:08.273Z,33.59
2023-05-21T12:35:20.729Z,33.92
2023-05-21T12:36:26.717Z,34.43
2023-05-21T12:37:35.682Z,34.22
2023-05-21T12:38:38.096Z,34.00
2023-05-21T12:39:42.764Z,33.63
2023-05-21T12:40:45.738Z,33.31
2023-05-21T12:41:48.174Z,33.52
2023-05-21T12:42:50.986Z,33.84
2023-05-21T12:43:53.130Z,34.37
2023-05-21T12:44:56.068Z,34.17
2023-05-21T12:45:58.374Z,34.16
2023-05-21T12:47:01.154Z,34.32
2023-05-21T12:48:03.537Z,34.67
2023-05-21T12:49:05.888Z,34.40
2023-05-21T12:50:11.935Z,34.77
2023-05-21T12:51:14.175Z,34.47
2023-05-21T12:52:21.004Z,34.20
2023-05-21T12:53:23.143Z,34.64
2023-05-21T12:54:33.257Z,34.80
2023-05-21T12:55:35.924Z,34.92
2023-05-21T12:56:45.490Z,34.67
2023-05-21T12:57:47.922Z,35.01
2023-05-21T12:58:50.536Z,35.15
2023-05-21T12:59:59.696Z,34.91
2023-05-21T13:01:03.913Z,35.46
2023-05-21T13:02:07.469Z,35.04
2023-05-21T13:03:09.700Z,35.48
2023-05-21T13:04:12.016Z,35.55
2023-05-21T13:05:18.158Z,35.78
2023-05-21T13:06:20.302Z,35.62
2023-05-21T13:07:23.106Z,35.21
2023-05-21T13:08:25.270Z,35.36
2023-05-21T13:09:28.562Z,35.53
2023-05-21T13:10:30.724Z,35.49
2023-05-21T13:11:32.879Z,35.55
2023-05-21T13:12:35.499Z,35.36
2023-05-21T13:13:37.648Z,34.97
2023-05-21T13:14:39.849Z,34.10
2023-05-21T13:15:42.056Z,33.72
2023-05-21T13:16:47.150Z,33.10
2023-05-21T13:17:50.422Z,33.34
2023-05-21T13:18:53.251Z,32.79
2023-05-21T13:20:09.679Z,32.76
2023-05-21T13:21:12.017Z,33.14
2023-05-21T13:22:14.165Z,33.75
2023-05-21T13:23:16.454Z,33.39
2023-05-21T13:24:18.713Z,33.87
2023-05-21T13:25:29.126Z,34.56
2023-05-21T13:26:31.381Z,34.78
2023-05-21T13:27:33.443Z,34.77
2023-05-21T13:28:35.720Z,35.13
2023-05-21T13:29:38.175Z,35.09
2023-05-21T13:30:40.530Z,35.02
2023-05-21T13:31:43.772Z,35.13
2023-05-21T13:32:46.287Z,34.98
2023-05-21T13:33:48.628Z,34.74
2023-05-21T13:34:50.806Z,34.99
2023-05-21T13:35:52.936Z,34.86
2023-05-21T13:36:55.104Z,35.20
2023-05-21T13:37:57.304Z,35.34
2023-05-21T13:38:59.527Z,35.35
2023-05-21T13:40:06.464Z,35.89
2023-05-21T13:41:08.607Z,35.50